Time;durP1;ratioP1;P1;durP2;ratioP2;P2;SDS_P1;SDS_P2;PMS_P1;PMS_P2;Temp;Humidity;BMP_temperature;BMP_pressure;BME280_temperature;BME280_humidity;BME280_pressure;Samples;Min_cycle;Max_cycle;Signal;HPM_P1;HPM_P2
2021/06/21 00:00:10;;;;;;;3.65;1.50;;;;;;;21.74;66.07;99534.39;1654882;86;20950;-79
2021/06/21 00:02:42;;;;;;;1.70;1.40;;;;;;;21.74;66.06;99528.11;1655527;86;21054;-79
2021/06/21 00:05:10;;;;;;;2.75;2.33;;;;;;;21.76;66.03;99531.33;1651311;85;21011;-76
2021/06/21 00:07:36;;;;;;;3.67;1.55;;;;;;;21.72;66.10;99533.93;1683370;85;21038;-75
2021/06/21 00:10:05;;;;;;;4.42;1.70;;;;;;;21.67;66.39;99531.93;1669861;85;21051;-75
2021/06/21 00:12:32;;;;;;;7.25;1.87;;;;;;;21.59;66.73;99530.00;1689175;84;21039;-79
2021/06/21 00:15:01;;;;;;;5.97;2.42;;;;;;;21.45;67.19;99524.73;1672401;85;21507;-76
2021/06/21 00:17:28;;;;;;;7.70;3.72;;;;;;;21.38;67.47;99523.63;1672322;85;21067;-75
2021/06/21 00:19:54;;;;;;;2.62;2.12;;;;;;;21.30;67.83;99521.94;1667978;85;20994;-74
2021/06/21 00:22:21;;;;;;;4.30;1.75;;;;;;;21.25;68.14;99517.20;1673881;85;21531;-74
2021/06/21 00:24:47;;;;;;;5.05;1.30;;;;;;;21.19;68.40;99512.48;1659803;85;20950;-76
2021/06/21 00:27:14;;;;;;;3.15;1.20;;;;;;;21.14;68.51;99516.75;1702968;83;21134;-74
2021/06/21 00:29:42;;;;;;;8.95;1.70;;;;;;;21.13;68.50;99517.04;1682479;84;21009;-73
2021/06/21 00:32:09;;;;;;;1.57;1.47;;;;;;;21.12;68.42;99519.53;1702809;83;21678;-78
2021/06/21 00:34:35;;;;;;;1.02;1.00;;;;;;;21.12;68.45;99522.27;1659762;85;21599;-82
2021/06/21 00:37:02;;;;;;;2.72;1.47;;;;;;;21.06;68.79;99527.65;1653222;85;21093;-80
2021/06/21 00:39:29;;;;;;;1.98;1.12;;;;;;;21.05;68.66;99532.91;1654240;86;21567;-79
2021/06/21 00:41:55;;;;;;;1.70;1.40;;;;;;;21.02;68.81;99532.97;1660056;85;21050;-74
2021/06/21 00:44:22;;;;;;;1.77;1.30;;;;;;;21.01;68.87;99536.83;1659897;85;21510;-83
2021/06/21 00:46:48;;;;;;;6.83;1.50;;;;;;;21.04;68.68;99536.76;1661489;84;21198;-85
2021/06/21 00:49:14;;;;;;;2.55;1.30;;;;;;;21.04;68.68;99536.76;1627827;87;21036;-84
2021/06/21 00:51:41;;;;;;;1.72;1.62;;;;;;;20.99;69.06;99536.36;1611507;86;21114;-82
2021/06/21 00:54:07;;;;;;;2.45;1.72;;;;;;;20.89;69.47;99534.75;1639907;85;21547;-81
2021/06/21 00:56:34;;;;;;;2.87;1.45;;;;;;;20.83;69.76;99537.95;1661518;85;21079;-80
2021/06/21 00:59:02;;;;;;;2.40;1.35;;;;;;;20.80;69.92;99533.14;1703193;83;20988;-76
2021/06/21 01:01:29;;;;;;;3.00;1.42;;;;;;;20.78;69.55;99525.25;1688411;83;21014;-72
2021/06/21 01:03:56;;;;;;;3.40;2.22;;;;;;;20.68;69.89;99515.19;1708526;83;22207;-72
2021/06/21 01:06:22;;;;;;;2.90;1.30;;;;;;;20.64;70.37;99511.49;1682106;84;20906;-73
2021/06/21 01:08:48;;;;;;;7.08;1.40;;;;;;;20.64;70.37;99511.49;1689267;83;21086;-71
2021/06/21 01:11:16;;;;;;;7.83;1.65;;;;;;;20.57;70.39;99505.16;1709940;83;21010;-71
2021/06/21 01:14:14;;;;;;;2.17;1.82;;;;;;;20.51;70.75;99507.80;1687946;83;21105;-73
2021/06/21 01:16:46;;;;;;;3.47;1.22;;;;;;;20.48;70.87;99507.64;1699582;83;21093;-71
2021/06/21 01:19:36;;;;;;;2.37;1.55;;;;;;;20.51;70.55;99505.63;1700267;83;21107;-70
2021/06/21 01:22:59;;;;;;;2.58;2.02;;;;;;;20.51;70.53;99511.09;1637970;84;21626;-70
2021/06/21 01:25:53;;;;;;;1.82;1.60;;;;;;;20.52;70.41;99515.44;1659901;85;21014;-71
2021/06/21 01:28:35;;;;;;;;;;;;;;;20.50;70.45;99508.91;1677615;84;21068;-72
2021/06/21 01:31:15;;;;;;;3.95;1.42;;;;;;;20.48;70.63;99504.91;1714873;83;21591;-73
2021/06/21 01:33:41;;;;;;;2.45;1.75;;;;;;;20.43;70.84;99504.50;1670113;84;21040;-72
2021/06/21 01:36:09;;;;;;;3.52;1.37;;;;;;;20.36;71.07;99496.77;1670053;85;21516;-73
2021/06/21 01:38:40;;;;;;;1.72;1.57;;;;;;;20.31;71.17;99493.38;1664460;85;21119;-72
2021/06/21 01:41:11;;;;;;;1.70;1.60;;;;;;;20.30;71.21;99491.20;1671030;85;21004;-72
2021/06/21 01:43:42;;;;;;;5.15;1.98;;;;;;;20.31;71.07;99499.65;1645683;87;21154;-73
2021/06/21 01:46:11;;;;;;;9.20;1.75;;;;;;;20.31;70.93;99495.55;1633501;85;21674;-73
2021/06/21 01:48:40;;;;;;;1.87;1.70;;;;;;;20.24;71.14;99501.22;1718144;83;21025;-73
2021/06/21 01:51:07;;;;;;;2.72;1.52;;;;;;;20.24;71.06;99501.22;1713228;83;21052;-74
2021/06/21 01:53:34;;;;;;;2.27;1.15;;;;;;;20.29;70.94;99506.50;1728416;83;21040;-71
2021/06/21 01:56:11;;;;;;;1.77;1.60;;;;;;;20.32;70.79;99500.45;1707483;82;21150;-72
2021/06/21 01:58:38;;;;;;;4.62;1.87;;;;;;;20.31;70.74;99496.91;1683370;84;20972;-72
2021/06/21 02:01:14;;;;;;;10.75;1.72;;;;;;;20.28;70.80;99494.80;1706393;84;21000;-71
2021/06/21 02:03:37;;;;;;;1.20;1.10;;;;;;;20.27;70.90;99492.38;1685741;84;21107;-72
2021/06/21 02:06:03;;;;;;;3.98;1.45;;;;;;;20.30;70.72;99494.47;1706511;84;21020;-72
2021/06/21 02:08:30;;;;;;;2.42;1.30;;;;;;;20.35;70.42;99488.88;1706284;83;20987;-72
2021/06/21 02:10:57;;;;;;;3.70;1.60;;;;;;;20.35;70.45;99486.95;1706370;83;20996;-72
2021/06/21 02:13:23;;;;;;;3.20;1.32;;;;;;;20.35;70.50;99490.25;1703343;83;21115;-73
2021/06/21 02:15:50;;;;;;;2.45;1.77;;;;;;;20.35;70.39;99486.15;1707840;82;20949;-73
2021/06/21 02:18:19;;;;;;;0.90;0.90;;;;;;;20.37;70.33;99484.72;1685635;84;21075;-72
2021/06/21 02:20:47;;;;;;;3.10;1.40;;;;;;;20.38;70.33;99487.67;1685883;84;21047;-72
2021/06/21 02:23:15;;;;;;;8.40;1.95;;;;;;;20.39;70.28;99489.84;1705323;84;21023;-72
2021/06/21 02:25:43;;;;;;;4.80;2.00;;;;;;;20.42;70.16;99491.95;1686717;82;21106;-71
2021/06/21 02:28:11;;;;;;;3.67;2.70;;;;;;;20.44;70.04;99486.41;1660037;85;21094;-71
2021/06/21 02:30:37;;;;;;;2.83;1.75;;;;;;;20.48;70.02;99492.61;1677370;85;21617;-73
2021/06/21 02:33:04;;;;;;;7.05;1.75;;;;;;;20.46;70.03;99495.66;1670930;84;21782;-73
2021/06/21 02:35:31;;;;;;;3.05;1.57;;;;;;;20.44;70.06;99495.97;1705382;82;21023;-73
2021/06/21 02:37:57;;;;;;;2.15;1.32;;;;;;;20.42;70.20;99496.86;1695411;83;21039;-72
2021/06/21 02:40:25;;;;;;;3.83;1.52;;;;;;;20.45;70.07;99497.58;1671548;85;21080;-72
2021/06/21 02:42:52;;;;;;;6.30;1.60;;;;;;;20.46;70.03;99487.45;1651817;85;21112;-72
2021/06/21 02:45:18;;;;;;;4.37;1.40;;;;;;;20.44;70.01;99488.33;1647746;85;21120;-72
2021/06/21 02:47:46;;;;;;;4.83;1.22;;;;;;;20.43;70.10;99494.35;1690997;84;21068;-72
2021/06/21 02:50:13;;;;;;;3.35;1.95;;;;;;;20.45;69.99;99488.02;1705672;84;20975;-73
2021/06/21 02:53:15;;;;;;;3.80;1.80;;;;;;;20.47;69.90;99487.70;1657429;85;20982;-73
2021/06/21 02:56:05;;;;;;;1.77;1.42;;;;;;;20.49;69.82;99492.83;1698706;83;22197;-72
2021/06/21 02:58:44;;;;;;;2.30;1.82;;;;;;;20.49;69.75;99485.44;1685248;83;21119;-73
2021/06/21 03:01:13;;;;;;;2.98;1.62;;;;;;;20.48;69.74;99488.52;1651547;85;21285;-73
2021/06/21 03:03:51;;;;;;;3.17;1.65;;;;;;;20.43;69.96;99483.42;1682768;85;20971;-72
2021/06/21 03:06:18;;;;;;;4.80;2.42;;;;;;;20.41;70.05;99481.59;1709717;83;21562;-71
2021/06/21 03:08:44;;;;;;;4.00;2.40;;;;;;;20.43;69.99;99479.91;1711201;83;20987;-71
2021/06/21 03:11:15;;;;;;;5.97;2.60;;;;;;;20.45;69.97;99473.55;1711813;83;21037;-72
2021/06/21 03:13:45;;;;;;;3.40;2.35;;;;;;;20.47;69.83;99475.41;1660884;85;21540;-71
2021/06/21 03:16:11;;;;;;;4.45;2.12;;;;;;;20.51;69.64;99473.64;1708802;83;20951;-72
2021/06/21 03:18:39;;;;;;;4.90;2.52;;;;;;;20.53;69.60;99475.47;1711543;83;21011;-72
2021/06/21 03:21:05;;;;;;;5.40;2.77;;;;;;;20.54;69.59;99483.92;1712489;83;21509;-72
2021/06/21 03:23:32;;;;;;;3.83;3.02;;;;;;;20.53;69.68;99485.04;1712408;83;21121;-72
2021/06/21 03:26:02;;;;;;;7.67;2.92;;;;;;;20.51;69.69;99481.03;1663339;85;21583;-72
2021/06/21 03:28:29;;;;;;;6.08;2.70;;;;;;;20.54;69.71;99474.91;1692038;82;20971;-73
2021/06/21 03:31:05;;;;;;;5.50;2.85;;;;;;;20.58;69.66;99473.14;1709686;83;21556;-72
2021/06/21 03:33:31;;;;;;;6.10;2.02;;;;;;;20.60;69.57;99479.91;1734794;82;21007;-72
2021/06/21 03:36:00;;;;;;;8.48;2.65;;;;;;;20.64;69.30;99484.16;1734465;81;21727;-72
2021/06/21 03:38:28;;;;;;;3.58;1.92;;;;;;;20.68;69.29;99486.49;1741688;81;21496;-72
2021/06/21 03:40:58;;;;;;;5.55;2.72;;;;;;;20.71;69.18;99488.60;1741471;81;20900;-72
2021/06/21 03:43:25;;;;;;;1.92;1.70;;;;;;;20.72;69.06;99489.63;1741834;81;20940;-73
2021/06/21 03:45:54;;;;;;;2.47;2.20;;;;;;;20.76;69.13;99497.45;1754888;81;20908;-73
2021/06/21 03:48:21;;;;;;;4.95;2.52;;;;;;;20.76;69.13;99497.45;1767719;81;21244;-71
2021/06/21 03:50:47;;;;;;;7.50;2.77;;;;;;;20.79;69.06;99500.09;1723279;81;20986;-70
2021/06/21 03:53:14;;;;;;;3.15;2.40;;;;;;;20.83;68.69;99496.39;1706299;83;20991;-71
2021/06/21 03:55:41;;;;;;;4.45;2.47;;;;;;;20.88;68.50;99500.89;1688989;84;20948;-72
2021/06/21 03:58:08;;;;;;;4.70;2.12;;;;;;;20.88;68.50;99500.89;1700075;84;21520;-72
2021/06/21 04:00:35;;;;;;;2.40;2.17;;;;;;;20.86;68.70;99501.20;1692937;84;21559;-72
2021/06/21 04:03:03;;;;;;;4.12;1.87;;;;;;;20.90;68.58;99498.65;1647398;87;21924;-73
2021/06/21 04:05:29;;;;;;;1.70;1.50;;;;;;;20.95;68.55;99497.12;1676373;85;20980;-72
2021/06/21 04:07:57;;;;;;;7.65;1.92;;;;;;;21.00;68.38;99502.98;1647828;87;21535;-72
2021/06/21 04:10:26;;;;;;;4.78;3.15;;;;;;;21.04;68.38;99494.38;1647595;86;21099;-72
2021/06/21 04:12:53;;;;;;;3.08;1.75;;;;;;;21.09;68.33;99492.84;1676296;85;21048;-72
2021/06/21 04:15:31;;;;;;;3.55;1.70;;;;;;;21.11;68.17;99486.46;1692940;84;21059;-73
2021/06/21 04:18:00;;;;;;;7.10;2.20;;;;;;;21.22;68.08;99486.41;1626605;87;21046;-74
2021/06/21 04:20:28;;;;;;;4.00;1.50;;;;;;;21.22;68.08;99486.41;1647770;87;21016;-73
2021/06/21 04:22:55;;;;;;;2.45;1.70;;;;;;;21.26;67.37;99490.09;1647572;87;21599;-72
2021/06/21 04:25:22;;;;;;;4.17;1.92;;;;;;;21.27;67.95;99489.77;1654682;85;21053;-71
2021/06/21 04:27:49;;;;;;;4.95;2.08;;;;;;;21.33;67.49;99484.94;1672651;84;21006;-72
2021/06/21 04:30:19;;;;;;;1.72;1.62;;;;;;;21.33;67.49;99484.94;1640754;86;21604;-71
2021/06/21 04:32:45;;;;;;;2.92;1.85;;;;;;;21.41;67.08;99488.77;1660115;86;21553;-73
2021/06/21 04:35:15;;;;;;;2.90;1.92;;;;;;;21.45;67.10;99495.19;1659918;86;21099;-72
2021/06/21 04:37:42;;;;;;;1.80;1.70;;;;;;;21.54;66.70;99489.13;1659923;86;21187;-71
2021/06/21 04:40:12;;;;;;;5.20;2.27;;;;;;;21.54;66.70;99489.13;1659841;86;21073;-73
2021/06/21 04:42:38;;;;;;;2.25;1.60;;;;;;;21.58;66.30;99491.47;1640547;86;21060;-72
2021/06/21 04:45:06;;;;;;;3.47;1.60;;;;;;;21.61;66.54;99490.23;1640592;86;21064;-74
2021/06/21 04:47:32;;;;;;;3.95;1.95;;;;;;;21.66;66.31;99492.80;1640619;86;21005;-72
2021/06/21 04:50:03;;;;;;;13.70;3.40;;;;;;;21.71;66.02;99488.52;1640528;86;21346;-73
2021/06/21 04:52:29;;;;;;;2.17;1.98;;;;;;;21.75;65.86;99484.55;1659671;86;21043;-74
2021/06/21 04:55:01;;;;;;;5.00;1.50;;;;;;;21.82;65.64;99486.78;1642002;83;21011;-75
2021/06/21 04:57:27;;;;;;;3.08;1.85;;;;;;;21.87;65.57;99491.48;1674689;85;21032;-74
2021/06/21 04:59:54;;;;;;;3.27;2.37;;;;;;;21.93;65.02;99489.37;1674824;85;21102;-75
2021/06/21 05:02:20;;;;;;;4.50;1.87;;;;;;;21.98;64.80;99482.37;1677075;85;22119;-72
2021/06/21 05:04:46;;;;;;;4.75;2.35;;;;;;;22.02;64.56;99480.00;1680570;84;20999;-73
2021/06/21 05:07:13;;;;;;;4.58;1.95;;;;;;;22.04;64.33;99482.42;1678065;85;21333;-74
2021/06/21 05:09:40;;;;;;;2.15;1.67;;;;;;;22.08;64.06;99475.95;1680156;84;21503;-74
2021/06/21 05:12:08;;;;;;;5.90;2.00;;;;;;;22.13;64.07;99477.70;1654847;84;21068;-73
2021/06/21 05:14:37;;;;;;;3.02;2.10;;;;;;;22.17;63.84;99478.63;1686828;84;21224;-72
2021/06/21 05:17:08;;;;;;;8.18;2.00;;;;;;;22.23;63.79;99477.31;1697299;84;21572;-72
2021/06/21 05:19:35;;;;;;;2.87;1.50;;;;;;;22.26;64.05;99484.05;1704171;84;21055;-72
2021/06/21 05:22:03;;;;;;;5.87;2.42;;;;;;;22.32;64.08;99485.47;1680551;84;21572;-73
2021/06/21 05:24:30;;;;;;;2.30;1.70;;;;;;;22.40;64.10;99490.89;1700988;84;21528;-73
2021/06/21 05:26:56;;;;;;;6.00;1.75;;;;;;;22.45;63.87;99492.06;1690629;84;20967;-73
2021/06/21 05:29:25;;;;;;;4.50;3.27;;;;;;;22.51;63.80;99494.85;1676511;84;21543;-73
2021/06/21 05:31:51;;;;;;;4.87;2.33;;;;;;;22.56;63.38;99497.39;1704276;84;21065;-72
2021/06/21 05:34:17;;;;;;;3.58;2.10;;;;;;;22.57;63.08;99484.50;1716846;82;21027;-72
2021/06/21 05:36:45;;;;;;;7.45;1.92;;;;;;;22.61;63.16;99485.42;1703918;84;22266;-72
2021/06/21 05:39:11;;;;;;;2.60;2.17;;;;;;;22.64;62.75;99482.59;1710307;82;21079;-71
2021/06/21 05:41:38;;;;;;;10.60;2.02;;;;;;;22.66;62.82;99476.20;1681871;84;21008;-71
2021/06/21 05:44:06;;;;;;;3.10;2.47;;;;;;;22.69;62.92;99469.47;1655619;84;21062;-71
2021/06/21 05:46:33;;;;;;;2.33;1.77;;;;;;;22.72;63.11;99475.70;1697653;83;21517;-71
2021/06/21 05:48:59;;;;;;;13.48;3.30;;;;;;;22.80;63.20;99476.19;1639222;86;21565;-71
2021/06/21 05:51:25;;;;;;;4.53;2.00;;;;;;;22.88;62.86;99469.81;1639227;86;21048;-72
2021/06/21 05:53:52;;;;;;;4.97;2.27;;;;;;;22.98;62.80;99469.97;1646033;83;21085;-73
2021/06/21 05:56:18;;;;;;;2.15;1.70;;;;;;;23.06;62.53;99473.78;1705294;83;20943;-73
2021/06/21 05:58:44;;;;;;;7.05;2.12;;;;;;;23.12;62.40;99477.92;1711717;83;21030;-73
2021/06/21 06:01:11;;;;;;;4.85;2.35;;;;;;;23.18;62.43;99475.98;1711959;83;21566;-73
2021/06/21 06:03:38;;;;;;;5.42;2.62;;;;;;;23.24;62.44;99486.19;1711468;83;21269;-72
2021/06/21 06:06:06;;;;;;;3.45;2.05;;;;;;;23.24;61.95;99481.50;1711477;83;21038;-72
2021/06/21 06:08:32;;;;;;;9.73;2.60;;;;;;;23.25;62.00;99488.59;1685193;83;21535;-70
2021/06/21 06:11:00;;;;;;;5.62;1.80;;;;;;;23.29;62.14;99481.86;1684234;83;21022;-73
2021/06/21 06:13:27;;;;;;;3.98;1.62;;;;;;;23.33;61.88;99482.20;1711797;83;21055;-72
2021/06/21 06:15:53;;;;;;;4.05;2.50;;;;;;;23.40;61.65;99484.41;1682427;83;21527;-73
2021/06/21 06:18:20;;;;;;;7.25;3.40;;;;;;;23.45;61.63;99483.63;1688512;83;20956;-73
2021/06/21 06:20:48;;;;;;;4.78;2.95;;;;;;;23.49;61.51;99478.28;1711720;83;21112;-72
2021/06/21 06:23:15;;;;;;;2.67;1.85;;;;;;;23.56;61.55;99477.13;1687920;83;21539;-72
2021/06/21 06:25:41;;;;;;;6.00;2.10;;;;;;;23.65;61.68;99477.82;1682075;85;21039;-73
2021/06/21 06:28:07;;;;;;;9.35;1.85;;;;;;;23.74;61.47;99469.50;1705089;83;21877;-72
2021/06/21 06:30:35;;;;;;;4.22;1.90;;;;;;;23.81;60.87;99473.27;1709163;83;20963;-74
2021/06/21 06:33:02;;;;;;;5.03;2.37;;;;;;;23.87;60.55;99467.78;1679957;85;20947;-73
2021/06/21 06:35:29;;;;;;;7.70;2.30;;;;;;;23.96;60.58;99466.86;1711820;83;21550;-74
2021/06/21 06:37:55;;;;;;;5.53;1.57;;;;;;;24.05;60.24;99466.16;1681187;85;21016;-73
2021/06/21 06:40:22;;;;;;;14.23;2.87;;;;;;;24.12;59.95;99463.66;1712080;83;21131;-72
2021/06/21 06:42:51;;;;;;;9.48;2.90;;;;;;;24.20;59.46;99458.05;1637597;83;21023;-72
2021/06/21 06:45:16;;;;;;;4.58;1.95;;;;;;;24.29;58.84;99448.30;1714392;82;21011;-73
2021/06/21 06:47:43;;;;;;;6.87;2.42;;;;;;;24.38;58.44;99451.72;1674851;83;21107;-75
2021/06/21 06:50:10;;;;;;;6.78;2.08;;;;;;;24.44;58.07;99452.28;1732468;82;21121;-73
2021/06/21 06:52:38;;;;;;;9.75;1.85;;;;;;;24.50;57.59;99453.64;1711733;82;21509;-74
2021/06/21 06:57:50;;;;;;;18.62;2.22;;;;;;;24.61;57.89;99445.11;1734249;82;21083;-73
2021/06/21 07:00:17;;;;;;;9.10;2.77;;;;;;;24.68;57.48;99449.45;1683192;84;20979;-74
2021/06/21 07:02:45;;;;;;;8.00;3.05;;;;;;;24.75;57.41;99446.89;1751779;81;21132;-73
2021/06/21 07:05:12;;;;;;;7.45;2.33;;;;;;;24.75;57.34;99436.69;1767812;81;22140;-74
2021/06/21 07:07:38;;;;;;;6.08;1.70;;;;;;;24.81;57.37;99440.00;1735858;81;21035;-75
2021/06/21 07:10:05;;;;;;;7.28;2.75;;;;;;;24.84;57.26;99435.77;1731083;81;20964;-75
2021/06/21 07:12:34;;;;;;;5.83;2.55;;;;;;;24.85;57.37;99431.27;1708112;84;20943;-74
2021/06/21 07:15:00;;;;;;;5.00;2.30;;;;;;;24.90;57.21;99432.42;1737204;82;21020;-74
2021/06/21 07:17:27;;;;;;;1.95;1.35;;;;;;;24.94;56.96;99425.06;1712215;82;21276;-74
2021/06/21 07:19:53;;;;;;;9.03;2.25;;;;;;;25.02;56.54;99420.00;1703480;81;21110;-73
2021/06/21 07:22:20;;;;;;;8.30;2.10;;;;;;;25.08;56.43;99421.31;1728971;81;20984;-72
2021/06/21 07:24:46;;;;;;;6.12;2.15;;;;;;;25.14;56.24;99427.36;1723571;81;21721;-74
2021/06/21 07:27:12;;;;;;;4.92;2.10;;;;;;;25.19;56.29;99430.66;1753166;81;21038;-74
2021/06/21 07:29:39;;;;;;;11.38;3.22;;;;;;;25.27;56.05;99430.30;1740964;81;21283;-72
2021/06/21 07:32:06;;;;;;;3.12;1.92;;;;;;;25.31;56.19;99433.93;1759817;81;20979;-73
2021/06/21 07:34:34;;;;;;;14.33;3.22;;;;;;;25.36;56.47;99432.87;1757692;81;21094;-71
2021/06/21 07:37:00;;;;;;;4.67;2.12;;;;;;;25.40;56.68;99432.38;1728471;81;21075;-74
2021/06/21 07:39:29;;;;;;;4.72;2.30;;;;;;;25.46;55.92;99433.14;1741115;81;20992;-72
2021/06/21 07:41:55;;;;;;;3.42;2.00;;;;;;;25.50;55.62;99435.98;1725061;81;21092;-74
2021/06/21 07:44:23;;;;;;;4.12;2.00;;;;;;;25.56;56.09;99442.26;1739169;81;20948;-73
2021/06/21 07:46:49;;;;;;;4.60;2.30;;;;;;;25.62;55.38;99437.28;1767529;81;21010;-75
2021/06/21 07:49:17;;;;;;;8.63;2.52;;;;;;;25.55;55.39;99438.50;1747892;81;20995;-73
2021/06/21 07:51:44;;;;;;;7.53;2.67;;;;;;;25.43;55.39;99436.59;1724148;81;21557;-71
2021/06/21 07:54:14;;;;;;;3.25;2.60;;;;;;;25.46;55.72;99437.85;1718270;81;21151;-74
2021/06/21 07:56:41;;;;;;;8.08;2.80;;;;;;;25.48;55.71;99443.78;1704700;84;21545;-74
2021/06/21 07:59:07;;;;;;;7.42;2.20;;;;;;;25.47;55.60;99436.09;1684393;83;20971;-73
2021/06/21 08:01:35;;;;;;;6.97;2.50;;;;;;;25.52;56.03;99441.92;1737341;81;20952;-73
2021/06/21 08:04:02;;;;;;;18.48;3.95;;;;;;;25.58;55.90;99446.84;1718304;82;21205;-73
2021/06/21 08:06:28;;;;;;;4.90;2.05;;;;;;;25.63;55.24;99443.02;1709908;82;21795;-71
2021/06/21 08:08:56;;;;;;;5.70;2.22;;;;;;;25.67;55.36;99445.86;1686713;83;21038;-73
2021/06/21 08:11:23;;;;;;;11.38;2.42;;;;;;;25.75;55.25;99445.70;1685557;82;21107;-75
2021/06/21 08:13:49;;;;;;;8.90;2.52;;;;;;;25.82;55.20;99443.09;1703818;83;21075;-72
2021/06/21 08:16:15;;;;;;;8.45;2.72;;;;;;;25.90;55.10;99443.48;1723896;83;21111;-73
2021/06/21 08:18:42;;;;;;;7.12;3.33;;;;;;;26.01;54.20;99439.61;1720791;81;22237;-72
2021/06/21 08:21:08;;;;;;;8.15;3.30;;;;;;;26.11;54.36;99440.43;1682083;83;20967;-73
2021/06/21 08:23:35;;;;;;;10.23;2.62;;;;;;;26.21;54.39;99434.39;1700383;82;21004;-73
2021/06/21 08:26:02;;;;;;;12.00;3.10;;;;;;;26.30;52.87;99434.98;1672558;83;21047;-73
2021/06/21 08:28:30;;;;;;;6.30;2.25;;;;;;;26.34;52.46;99430.34;1687934;83;21078;-71
2021/06/21 08:30:56;;;;;;;21.52;2.40;;;;;;;26.37;52.46;99429.64;1719960;81;21175;-71
2021/06/21 08:33:22;;;;;;;5.45;3.02;;;;;;;26.46;52.30;99426.09;1680647;85;21523;-71
2021/06/21 08:35:49;;;;;;;5.95;2.02;;;;;;;26.55;52.58;99423.11;1676486;85;21017;-72
2021/06/21 08:38:16;;;;;;;6.45;2.58;;;;;;;26.64;52.82;99422.30;1676133;85;21063;-70
2021/06/21 08:40:43;;;;;;;6.67;2.65;;;;;;;26.71;52.92;99422.46;1684933;84;21059;-72
2021/06/21 08:43:10;;;;;;;7.53;2.40;;;;;;;26.78;52.65;99417.06;1685871;84;21657;-72
2021/06/21 08:45:38;;;;;;;18.15;3.50;;;;;;;26.87;52.74;99416.29;1709259;83;21003;-72
2021/06/21 08:48:07;;;;;;;7.05;3.55;;;;;;;26.98;52.71;99415.70;1706458;84;20957;-71
2021/06/21 08:50:38;;;;;;;8.43;2.50;;;;;;;27.05;52.21;99404.19;1704766;82;21052;-73
2021/06/21 08:53:05;;;;;;;11.97;2.85;;;;;;;27.09;51.87;99409.80;1701569;84;20945;-73
2021/06/21 08:55:31;;;;;;;6.50;2.85;;;;;;;27.11;52.56;99415.16;1678917;84;21231;-73
2021/06/21 08:57:58;;;;;;;13.35;3.70;;;;;;;27.19;52.23;99407.82;1690958;84;21020;-72
2021/06/21 09:00:24;;;;;;;8.88;2.92;;;;;;;27.25;51.58;99404.95;1650309;85;21085;-72
2021/06/21 09:02:50;;;;;;;6.37;2.65;;;;;;;27.34;50.76;99415.97;1681778;85;21572;-74
2021/06/21 09:05:17;;;;;;;10.10;2.75;;;;;;;27.45;50.74;99418.91;1683325;85;21079;-72
2021/06/21 09:07:46;;;;;;;6.45;2.02;;;;;;;27.53;50.37;99421.27;1683426;85;21735;-72
2021/06/21 09:10:29;;;;;;;9.60;3.50;;;;;;;27.59;50.18;99417.00;1683077;85;20994;-72
2021/06/21 09:13:13;;;;;;;13.43;3.75;;;;;;;27.62;50.16;99409.38;1660893;84;21107;-79
2021/06/21 09:15:47;;;;;;;9.98;2.58;;;;;;;27.67;50.16;99416.73;1649342;85;21027;-76
2021/06/21 09:18:34;;;;;;;11.05;3.92;;;;;;;27.73;50.00;99413.88;1679816;85;21098;-75
2021/06/21 09:21:24;;;;;;;7.33;2.00;;;;;;;27.74;50.36;99417.45;1709260;82;21054;-80
2021/06/21 09:23:53;;;;;;;5.83;3.55;;;;;;;27.81;49.71;99425.06;1712449;82;21037;-77
2021/06/21 09:26:26;;;;;;;11.08;2.72;;;;;;;27.90;49.05;99420.88;1688674;83;21048;-73
2021/06/21 09:28:53;;;;;;;18.50;3.22;;;;;;;28.00;49.16;99421.62;1665976;85;21070;-75
2021/06/21 09:31:21;;;;;;;13.22;2.72;;;;;;;28.13;48.35;99423.02;1696346;83;21026;-75
2021/06/21 09:33:47;;;;;;;6.65;1.92;;;;;;;28.22;48.20;99421.94;1678806;85;21145;-76
2021/06/21 09:36:34;;;;;;;7.45;2.12;;;;;;;28.32;48.50;99418.52;1645317;86;21785;-76
2021/06/21 09:39:25;;;;;;;14.47;2.77;;;;;;;28.39;48.37;99425.55;1652939;86;21055;-80
2021/06/21 09:42:22;;;;;;;12.23;2.67;;;;;;;28.44;48.17;99412.16;1666104;85;21102;-77
2021/06/21 09:44:50;;;;;;;15.48;2.60;;;;;;;28.52;47.28;99419.98;1647009;86;21563;-75
2021/06/21 09:47:31;;;;;;;12.43;2.50;;;;;;;28.59;47.18;99425.59;1660949;85;21532;-75
2021/06/21 09:50:11;;;;;;;16.05;3.02;;;;;;;28.61;47.02;99427.41;1655059;86;21069;-74
2021/06/21 09:52:51;;;;;;;11.65;2.50;;;;;;;28.66;47.26;99431.22;1685819;84;21023;-74
2021/06/21 09:55:38;;;;;;;17.73;3.47;;;;;;;28.68;47.57;99423.94;1683763;83;21639;-74
2021/06/21 09:58:12;;;;;;;22.48;4.92;;;;;;;28.71;47.70;99432.30;1689054;84;21068;-76
2021/06/21 10:00:54;;;;;;;14.10;3.17;;;;;;;28.72;47.57;99426.19;1703253;82;21915;-75
2021/06/21 10:03:27;;;;;;;4.50;2.42;;;;;;;28.71;47.82;99430.92;1673344;83;20960;-76
2021/06/21 10:06:13;;;;;;;10.48;3.95;;;;;;;28.76;47.88;99430.59;1635305;86;21504;-75
2021/06/21 10:08:50;;;;;;;9.53;3.35;;;;;;;28.84;48.03;99432.84;1684430;85;20986;-79
2021/06/21 10:11:37;;;;;;;11.48;2.98;;;;;;;28.91;48.13;99432.94;1677206;85;21536;-77
2021/06/21 10:14:08;;;;;;;14.23;3.20;;;;;;;28.96;47.99;99438.14;1657387;85;21854;-82
2021/06/21 10:16:35;;;;;;;28.50;5.78;;;;;;;29.07;48.07;99436.26;1711908;82;21003;-73
2021/06/21 10:19:02;;;;;;;16.87;5.08;;;;;;;29.15;47.87;99447.64;1711927;82;21513;-76
2021/06/21 10:21:29;;;;;;;18.10;4.28;;;;;;;29.20;47.44;99438.19;1699176;84;21071;-75
2021/06/21 10:23:56;;;;;;;17.87;3.62;;;;;;;29.25;46.97;99442.00;1713015;82;21059;-75
2021/06/21 10:26:24;;;;;;;12.58;3.05;;;;;;;29.29;46.65;99450.55;1711829;82;21509;-73
2021/06/21 10:28:51;;;;;;;21.33;3.47;;;;;;;29.33;47.32;99438.14;1711792;82;21049;-77
2021/06/21 10:31:29;;;;;;;24.55;5.83;;;;;;;29.33;47.07;99447.25;1706723;84;21719;-75
2021/06/21 10:34:04;;;;;;;14.53;3.33;;;;;;;29.29;46.96;99451.94;1704404;82;21057;-76
2021/06/21 10:36:49;;;;;;;10.35;3.65;;;;;;;29.23;46.89;99454.84;1694605;82;20917;-78
2021/06/21 10:39:29;;;;;;;32.23;6.22;;;;;;;29.21;47.56;99455.02;1735049;82;22222;-80
2021/06/21 10:42:10;;;;;;;38.08;5.15;;;;;;;29.23;47.30;99450.69;1711822;82;21027;-77
2021/06/21 10:44:58;;;;;;;9.20;3.92;;;;;;;29.30;47.61;99443.88;1712283;82;21070;-77
2021/06/21 10:47:35;;;;;;;18.73;3.87;;;;;;;29.46;47.26;99451.33;1726089;82;21035;-72
2021/06/21 10:50:20;;;;;;;30.30;4.37;;;;;;;29.55;46.80;99448.23;1704947;82;22176;-80
2021/06/21 10:52:55;;;;;;;20.25;4.33;;;;;;;29.51;47.21;99441.88;1734279;82;21148;-78
2021/06/21 10:55:33;;;;;;;15.75;4.35;;;;;;;29.49;47.28;99435.93;1735631;82;21082;-74
2021/06/21 10:58:08;;;;;;;20.70;3.55;;;;;;;29.61;47.01;99443.14;1754178;81;20993;-72
2021/06/21 11:00:47;;;;;;;16.70;4.03;;;;;;;29.73;46.76;99445.64;1740351;81;21503;-73
2021/06/21 11:03:34;;;;;;;20.17;4.72;;;;;;;29.86;46.57;99441.38;1736644;82;21507;-78
2021/06/21 11:06:05;;;;;;;17.37;4.78;;;;;;;29.98;46.52;99448.02;1737129;82;21159;-80
2021/06/21 11:08:54;;;;;;;23.35;4.53;;;;;;;30.00;46.58;99454.58;1737206;82;21563;-80
2021/06/21 11:11:39;;;;;;;17.00;4.03;;;;;;;29.97;46.55;99456.74;1709931;83;21080;-79
2021/06/21 11:14:12;;;;;;;14.53;3.83;;;;;;;30.03;46.73;99459.34;1727935;83;21582;-77
2021/06/21 11:16:40;;;;;;;18.45;4.53;;;;;;;30.12;46.50;99455.66;1706116;81;22272;-81
2021/06/21 11:19:24;;;;;;;20.27;4.10;;;;;;;30.24;46.03;99447.00;1732052;81;21106;-78
2021/06/21 11:21:57;;;;;;;14.07;3.35;;;;;;;30.37;45.36;99450.23;1731946;81;20999;-78
2021/06/21 11:24:48;;;;;;;20.12;4.92;;;;;;;30.36;45.41;99459.77;1715508;82;21045;-79
2021/06/21 11:27:17;;;;;;;17.07;3.77;;;;;;;30.39;45.44;99468.11;1753069;81;21011;-79
2021/06/21 11:29:51;;;;;;;17.65;4.67;;;;;;;30.50;45.41;99453.73;1737989;81;21208;-79
2021/06/21 11:32:18;;;;;;;16.20;4.37;;;;;;;30.58;44.98;99456.74;1741496;81;21075;-79
2021/06/21 11:34:54;;;;;;;21.57;6.12;;;;;;;30.68;44.43;99457.98;1764779;81;20936;-77
2021/06/21 11:37:44;;;;;;;25.77;6.10;;;;;;;30.76;43.88;99455.42;1733173;81;21118;-77
2021/06/21 11:40:22;;;;;;;23.12;3.98;;;;;;;30.74;43.76;99451.63;1686122;84;21067;-77
2021/06/21 11:43:06;;;;;;;23.87;4.40;;;;;;;30.56;44.02;99452.16;1681846;85;21050;-76
2021/06/21 11:45:59;;;;;;;13.50;3.95;;;;;;;30.44;44.99;99451.09;1685718;83;21165;-75
2021/06/21 11:48:33;;;;;;;24.85;5.70;;;;;;;30.45;45.73;99449.91;1691545;82;20955;-77